Time;durP1;ratioP1;P1;durP2;ratioP2;P2;SDS_P1;SDS_P2;PMS_P1;PMS_P2;Temp;Humidity;BMP_temperature;BMP_pressure;BME280_temperature;BME280_humidity;BME280_pressure;Samples;Min_cycle;Max_cycle;Signal;HPM_P1;HPM_P2
2023/07/10 00:02:50;;;;;;;8.48;4.45;;;26.10;54.20;;;;;;7643502;22;80943;-60
2023/07/10 00:05:50;;;;;;;7.03;3.92;;;26.10;54.20;;;;;;7643708;22;80827;-61
2023/07/10 00:08:51;;;;;;;5.47;4.10;;;26.10;53.90;;;;;;7644042;22;80615;-62
2023/07/10 00:11:51;;;;;;;7.13;3.95;;;26.10;54.10;;;;;;7644146;22;80790;-61
2023/07/10 00:14:52;;;;;;;7.18;4.13;;;26.10;54.20;;;;;;7643659;22;80353;-61
2023/07/10 00:17:52;;;;;;;6.97;4.15;;;26.20;54.10;;;;;;7643717;22;80443;-62
2023/07/10 00:20:53;;;;;;;5.57;4.53;;;26.20;53.80;;;;;;7643932;22;80280;-62
2023/07/10 00:23:54;;;;;;;8.27;4.50;;;26.20;53.80;;;;;;7643629;22;80649;-55
2023/07/10 00:26:54;;;;;;;6.20;4.90;;;26.20;53.70;;;;;;7643165;22;80641;-53
2023/07/10 00:29:55;;;;;;;8.60;4.38;;;26.10;54.00;;;;;;7615733;22;82978;-54
2023/07/10 00:32:55;;;;;;;7.13;5.07;;;26.00;54.10;;;;;;7617011;22;81345;-56
2023/07/10 00:35:56;;;;;;;7.50;4.60;;;26.00;54.10;;;;;;7642566;22;80427;-55
2023/07/10 00:38:56;;;;;;;10.43;5.35;;;26.10;54.00;;;;;;7643013;22;81683;-55
2023/07/10 00:41:57;;;;;;;5.97;4.32;;;26.00;53.70;;;;;;7642496;22;80804;-54
2023/07/10 00:44:58;;;;;;;4.65;3.83;;;26.00;53.90;;;;;;7642988;22;80718;-55
2023/07/10 00:47:58;;;;;;;5.95;4.40;;;25.90;54.10;;;;;;7642503;22;80570;-52
2023/07/10 00:50:59;;;;;;;5.00;4.03;;;25.90;53.90;;;;;;7642904;22;80289;-57
2023/07/10 00:54:00;;;;;;;6.28;3.78;;;25.90;53.90;;;;;;7641983;22;80416;-55
2023/07/10 00:57:00;;;;;;;4.88;4.03;;;25.90;53.80;;;;;;7616514;22;81608;-54
2023/07/10 01:00:01;;;;;;;5.60;4.13;;;25.90;53.70;;;;;;7642780;22;80337;-61
2023/07/10 01:03:01;;;;;;;7.63;4.65;;;25.90;53.80;;;;;;7643316;22;80702;-60
2023/07/10 01:06:02;;;;;;;7.65;3.97;;;25.80;53.80;;;;;;7612786;22;82238;-60
2023/07/10 01:09:03;;;;;;;8.27;4.20;;;25.90;53.80;;;;;;7640321;22;80694;-62
2023/07/10 01:12:06;;;;;;;8.10;4.57;;;25.90;53.80;;;;;;7640058;22;85553;-59
2023/07/10 01:15:07;;;;;;;5.68;3.90;;;25.90;53.80;;;;;;7640795;22;80967;-60
2023/07/10 01:18:10;;;;;;;6.72;4.03;;;25.90;53.70;;;;;;7640458;22;80845;-52
2023/07/10 01:21:10;;;;;;;6.45;4.05;;;25.90;53.70;;;;;;7642558;22;80487;-53
2023/07/10 01:24:11;;;;;;;6.60;4.53;;;25.90;53.80;;;;;;7616452;22;81454;-56
2023/07/10 01:27:11;;;;;;;7.22;4.15;;;25.80;53.70;;;;;;7641788;22;80759;-52
2023/07/10 01:30:12;;;;;;;5.45;3.90;;;25.80;53.60;;;;;;7643654;22;80169;-56
2023/07/10 01:33:13;;;;;;;5.50;4.03;;;25.80;53.60;;;;;;7643175;22;80552;-55
2023/07/10 01:36:13;;;;;;;6.65;4.15;;;25.80;53.60;;;;;;7642671;22;80314;-54
2023/07/10 01:39:14;;;;;;;9.32;4.28;;;25.80;53.70;;;;;;7642185;22;80464;-69
2023/07/10 01:42:14;;;;;;;6.50;4.05;;;25.70;53.70;;;;;;7642889;22;80521;-69
2023/07/10 01:45:15;;;;;;;4.75;4.22;;;25.70;53.70;;;;;;7642573;22;80706;-71
2023/07/10 01:48:15;;;;;;;6.40;3.83;;;25.70;53.70;;;;;;7642670;22;80310;-70
2023/07/10 01:51:17;;;;;;;8.23;4.35;;;25.60;53.80;;;;;;7615817;22;82926;-70
2023/07/10 01:54:18;;;;;;;8.20;4.18;;;25.60;53.90;;;;;;7617114;22;83135;-71
2023/07/10 01:57:23;;;;;;;4.53;4.03;;;25.70;54.00;;;;;;7642555;22;80406;-54
2023/07/10 02:00:24;;;;;;;6.03;4.60;;;25.70;53.90;;;;;;7641746;22;85228;-55
2023/07/10 02:03:25;;;;;;;8.25;4.60;;;25.70;53.80;;;;;;7641920;22;81365;-58
2023/07/10 02:06:26;;;;;;;6.90;4.70;;;25.70;53.90;;;;;;7642453;22;80491;-56
2023/07/10 02:09:26;;;;;;;6.63;4.68;;;25.60;53.90;;;;;;7643188;22;80911;-57
2023/07/10 02:12:27;;;;;;;6.43;4.20;;;25.70;53.90;;;;;;7642405;22;80389;-55
2023/07/10 02:15:27;;;;;;;6.82;4.72;;;25.70;53.80;;;;;;7615803;22;83703;-56
2023/07/10 02:18:28;;;;;;;7.00;4.00;;;25.70;53.50;;;;;;7642373;22;80395;-58
2023/07/10 02:21:28;;;;;;;5.93;4.68;;;25.70;53.70;;;;;;7643164;22;80563;-57
2023/07/10 02:24:29;;;;;;;7.55;4.47;;;25.70;54.50;;;;;;7642716;22;80252;-57
2023/07/10 02:27:29;;;;;;;7.40;4.50;;;25.70;54.10;;;;;;7642150;22;81552;-54
2023/07/10 02:30:30;;;;;;;6.40;4.10;;;25.70;53.80;;;;;;7642529;22;80915;-53
2023/07/10 02:33:31;;;;;;;6.03;4.43;;;25.70;53.90;;;;;;7615636;22;82850;-64
2023/07/10 02:36:31;;;;;;;7.40;4.53;;;25.70;54.00;;;;;;7615949;22;80950;-66
2023/07/10 02:39:32;;;;;;;6.40;4.53;;;25.60;54.00;;;;;;7642894;22;80944;-66
2023/07/10 02:42:32;;;;;;;7.30;4.30;;;25.60;53.90;;;;;;7643213;22;80756;-66
2023/07/10 02:45:33;;;;;;;7.07;4.90;;;25.60;54.00;;;;;;7638947;22;82069;-65
2023/07/10 02:48:33;;;;;;;6.60;4.53;;;25.70;53.90;;;;;;7615459;22;83739;-68
2023/07/10 02:51:34;;;;;;;6.38;4.57;;;25.70;54.10;;;;;;7643031;22;80706;-66
2023/07/10 02:54:34;;;;;;;5.50;4.20;;;25.70;54.10;;;;;;7616193;22;80518;-67
2023/07/10 02:57:35;;;;;;;8.38;4.85;;;25.70;54.00;;;;;;7616670;22;83450;-69
2023/07/10 03:00:35;;;;;;;5.50;4.20;;;25.70;53.80;;;;;;7615540;22;83684;-74
2023/07/10 03:03:38;;;;;;;7.10;4.57;;;25.60;53.80;;;;;;7615196;22;83225;-76
2023/07/10 03:06:38;;;;;;;9.02;4.57;;;25.60;53.90;;;;;;7642020;22;80790;-75
2023/07/10 03:09:39;;;;;;;6.63;4.50;;;25.60;53.90;;;;;;7642929;22;80310;-57
2023/07/10 03:12:39;;;;;;;5.57;4.20;;;25.70;54.20;;;;;;7641153;22;80309;-55
2023/07/10 03:15:40;;;;;;;6.68;4.13;;;25.70;53.80;;;;;;7614086;22;83257;-56
2023/07/10 03:18:40;;;;;;;8.75;4.32;;;25.70;54.00;;;;;;7640572;22;80779;-52
2023/07/10 03:21:41;;;;;;;5.85;4.50;;;25.70;53.70;;;;;;7642502;22;80215;-58
2023/07/10 03:24:41;;;;;;;5.65;4.30;;;25.70;53.60;;;;;;7643336;22;80829;-56
2023/07/10 03:27:42;;;;;;;7.63;4.60;;;25.60;53.70;;;;;;7643567;22;80907;-77
2023/07/10 03:30:42;;;;;;;5.72;4.18;;;25.60;54.40;;;;;;7644074;22;80790;-74
2023/07/10 03:33:43;;;;;;;6.95;5.07;;;25.60;53.90;;;;;;7644317;22;80621;-73
2023/07/10 03:36:43;;;;;;;5.20;4.05;;;25.60;53.80;;;;;;7643236;22;80293;-72
2023/07/10 03:39:44;;;;;;;6.47;4.10;;;25.60;54.30;;;;;;7643958;22;80342;-74
2023/07/10 03:42:44;;;;;;;8.05;4.80;;;25.70;54.00;;;;;;7643924;22;80343;-76
2023/07/10 03:45:45;;;;;;;6.90;3.95;;;25.70;54.00;;;;;;7644493;22;80570;-60
2023/07/10 03:48:47;;;;;;;7.50;4.80;;;25.70;54.00;;;;;;7643433;22;80864;-59
2023/07/10 03:51:48;;;;;;;8.75;4.68;;;25.70;54.00;;;;;;7642846;22;80511;-60
2023/07/10 03:54:48;;;;;;;7.53;4.35;;;25.70;53.90;;;;;;7643413;22;80414;-62
2023/07/10 03:57:49;;;;;;;8.45;4.93;;;25.70;53.90;;;;;;7643354;22;80325;-60
2023/07/10 04:00:49;;;;;;;7.65;4.90;;;25.70;54.20;;;;;;7644572;22;80357;-61
2023/07/10 04:03:50;;;;;;;6.65;5.20;;;25.70;54.10;;;;;;7627645;22;81141;-60
2023/07/10 04:06:50;;;;;;;8.57;4.80;;;25.80;54.40;;;;;;7632847;22;80460;-59
2023/07/10 04:09:51;;;;;;;7.03;4.88;;;25.80;54.20;;;;;;7638105;22;81007;-60
2023/07/10 04:12:51;;;;;;;12.88;5.35;;;25.80;54.20;;;;;;7641245;22;81174;-63
2023/07/10 04:15:52;;;;;;;14.15;6.07;;;25.80;54.50;;;;;;7636557;22;80546;-60
2023/07/10 04:18:53;;;;;;;12.63;5.80;;;25.80;54.70;;;;;;7640093;22;80679;-62
2023/07/10 04:21:53;;;;;;;12.23;5.82;;;25.90;54.60;;;;;;7640687;22;80152;-59
2023/07/10 04:24:54;;;;;;;13.00;5.95;;;25.90;54.50;;;;;;7643031;22;80630;-58
2023/07/10 04:27:54;;;;;;;11.98;5.53;;;25.90;54.80;;;;;;7642922;22;81204;-61
2023/07/10 04:30:55;;;;;;;11.55;5.32;;;25.90;54.90;;;;;;7643932;22;80011;-60
2023/07/10 04:33:55;;;;;;;8.98;5.97;;;25.90;55.20;;;;;;7642570;22;80833;-60
2023/07/10 04:36:56;;;;;;;10.25;5.55;;;25.90;55.30;;;;;;7641275;22;85718;-61
2023/07/10 04:39:57;;;;;;;9.73;5.43;;;25.90;55.10;;;;;;7641651;22;80498;-62
2023/07/10 04:42:57;;;;;;;10.98;5.90;;;25.90;55.40;;;;;;7643851;22;80577;-59
2023/07/10 04:45:58;;;;;;;11.70;5.97;;;25.90;55.40;;;;;;7641209;22;80550;-63
2023/07/10 04:48:58;;;;;;;9.68;5.63;;;25.90;55.30;;;;;;7642998;22;80494;-59
2023/07/10 04:51:59;;;;;;;10.57;5.75;;;25.90;55.60;;;;;;7643077;22;80776;-59
2023/07/10 04:54:59;;;;;;;12.60;5.88;;;25.90;55.60;;;;;;7641372;22;80578;-60
2023/07/10 04:58:00;;;;;;;10.15;5.40;;;25.90;56.00;;;;;;7641636;22;81084;-59
2023/07/10 05:01:00;;;;;;;14.40;6.03;;;25.90;56.40;;;;;;7642431;22;80055;-55
2023/07/10 05:04:01;;;;;;;8.20;5.18;;;25.90;56.10;;;;;;7641908;22;80989;-59
2023/07/10 05:07:03;;;;;;;13.38;6.03;;;26.00;56.40;;;;;;7643181;22;80375;-57
2023/07/10 05:10:03;;;;;;;9.90;5.53;;;25.90;56.30;;;;;;7641274;22;81296;-58
2023/07/10 05:13:04;;;;;;;8.95;6.20;;;25.90;56.30;;;;;;7642367;22;80238;-58
2023/07/10 05:16:04;;;;;;;11.13;6.28;;;25.90;56.40;;;;;;7640449;22;81051;-54
2023/07/10 05:19:05;;;;;;;11.55;5.57;;;26.00;56.80;;;;;;7551081;22;80987;-58
2023/07/10 05:22:05;;;;;;;13.90;6.05;;;26.00;56.70;;;;;;7557781;22;80376;-57
2023/07/10 05:25:06;;;;;;;14.02;5.53;;;26.00;56.60;;;;;;7640880;22;80841;-55
2023/07/10 05:28:06;;;;;;;9.55;5.65;;;26.00;56.60;;;;;;7642425;22;82923;-57
2023/07/10 05:31:07;;;;;;;14.30;5.97;;;26.00;56.10;;;;;;7641570;22;81326;-55
2023/07/10 05:34:07;;;;;;;11.35;4.97;;;26.00;56.20;;;;;;7642268;22;80979;-55
2023/07/10 05:37:08;;;;;;;11.10;4.88;;;26.00;56.50;;;;;;7641384;22;80580;-67
2023/07/10 05:40:08;;;;;;;7.53;5.15;;;26.00;55.90;;;;;;7642206;22;80466;-67
2023/07/10 05:43:09;;;;;;;11.27;5.15;;;25.90;55.40;;;;;;7643364;22;80706;-66
2023/07/10 05:46:09;;;;;;;6.70;5.45;;;25.90;55.40;;;;;;7640142;22;81535;-65
2023/07/10 05:49:10;;;;;;;6.47;4.80;;;25.90;55.30;;;;;;7641031;22;81308;-67
2023/07/10 05:52:10;;;;;;;7.28;4.90;;;25.90;55.00;;;;;;7640865;22;80238;-65
2023/07/10 05:55:11;;;;;;;11.80;5.10;;;26.00;55.30;;;;;;7641199;22;80488;-62
2023/07/10 05:58:11;;;;;;;11.20;5.15;;;26.00;55.40;;;;;;7640870;22;80742;-60
2023/07/10 06:01:12;;;;;;;9.27;5.13;;;26.00;55.20;;;;;;7602954;22;81704;-60
2023/07/10 06:04:12;;;;;;;9.48;4.55;;;26.10;55.20;;;;;;7639791;22;80371;-60
2023/07/10 06:07:13;;;;;;;7.55;4.47;;;26.10;55.20;;;;;;7641120;22;80498;-59
2023/07/10 06:10:13;;;;;;;8.93;4.93;;;26.10;55.30;;;;;;7638727;22;80386;-59
2023/07/10 06:13:14;;;;;;;7.22;4.18;;;26.10;55.20;;;;;;7613124;22;81983;-62
2023/07/10 06:16:14;;;;;;;6.35;4.53;;;26.20;55.10;;;;;;7640342;22;80429;-60
2023/07/10 06:19:16;;;;;;;9.63;4.72;;;26.20;54.40;;;;;;7640697;22;80809;-58
2023/07/10 06:22:17;;;;;;;12.13;5.18;;;26.20;54.40;;;;;;7638616;22;80964;-59
2023/07/10 06:25:17;;;;;;;8.02;5.22;;;26.20;54.00;;;;;;7639602;22;80215;-60
2023/07/10 06:28:18;;;;;;;18.98;5.32;;;26.20;55.30;;;;;;7640539;22;80370;-57
2023/07/10 06:31:18;;;;;;;8.20;4.97;;;26.20;57.10;;;;;;7638702;22;80553;-61
2023/07/10 06:34:19;;;;;;;11.95;5.00;;;26.20;56.60;;;;;;7639669;22;80817;-60
2023/07/10 06:37:19;;;;;;;4.95;4.40;;;26.30;57.10;;;;;;7635241;22;80292;-63
2023/07/10 06:40:20;;;;;;;6.13;4.55;;;26.30;60.10;;;;;;7638676;22;81704;-62
2023/07/10 06:43:20;;;;;;;7.07;4.65;;;26.20;57.10;;;;;;7626071;22;80803;-63
2023/07/10 06:46:21;;;;;;;21.50;5.35;;;26.20;56.80;;;;;;7633255;22;80233;-61
2023/07/10 06:49:21;;;;;;;9.73;5.05;;;26.20;56.40;;;;;;7624146;22;81054;-63
2023/07/10 06:52:22;;;;;;;9.02;5.03;;;26.30;55.90;;;;;;7637790;22;80327;-61
2023/07/10 06:55:22;;;;;;;8.88;4.82;;;26.20;54.90;;;;;;7634139;22;80838;-61
2023/07/10 06:58:23;;;;;;;10.57;5.38;;;26.20;54.50;;;;;;7637129;22;80355;-62
2023/07/10 07:01:23;;;;;;;11.40;5.22;;;26.20;53.90;;;;;;7635751;22;80899;-63
2023/07/10 07:04:24;;;;;;;6.05;4.63;;;26.30;54.10;;;;;;7636390;22;80971;-62
2023/07/10 07:07:24;;;;;;;8.57;5.20;;;26.20;54.20;;;;;;7636862;22;81075;-72
2023/07/10 07:10:25;;;;;;;8.80;4.57;;;26.20;54.10;;;;;;7638952;22;80696;-68
2023/07/10 07:13:26;;;;;;;8.80;4.80;;;26.20;54.20;;;;;;7638184;22;81287;-71
2023/07/10 07:16:26;;;;;;;10.55;4.72;;;26.20;54.20;;;;;;7640110;22;81587;-70
2023/07/10 07:19:27;;;;;;;14.23;5.20;;;26.30;53.90;;;;;;7613761;22;81720;-74
2023/07/10 07:22:27;;;;;;;8.75;4.80;;;26.30;53.70;;;;;;7640793;22;80898;-68
2023/07/10 07:25:28;;;;;;;19.08;5.50;;;26.30;53.60;;;;;;7640444;22;80266;-64
2023/07/10 07:28:28;;;;;;;12.45;4.60;;;26.30;53.50;;;;;;7636142;22;80839;-68
2023/07/10 07:31:29;;;;;;;7.68;4.97;;;26.40;53.70;;;;;;7639928;22;80480;-71
2023/07/10 07:34:29;;;;;;;8.43;4.50;;;26.40;54.00;;;;;;7641093;22;80806;-71
2023/07/10 07:37:29;;;;;;;7.97;4.60;;;26.40;54.10;;;;;;7640544;22;81242;-70
2023/07/10 07:40:30;;;;;;;9.05;4.85;;;26.40;54.00;;;;;;7637701;22;81059;-70
2023/07/10 07:43:31;;;;;;;6.32;4.40;;;26.40;54.10;;;;;;7639847;22;80806;-69
2023/07/10 07:46:32;;;;;;;9.50;4.65;;;26.30;53.30;;;;;;7640965;22;80655;-62
2023/07/10 07:49:32;;;;;;;9.02;4.45;;;26.30;53.30;;;;;;7637178;22;83002;-62
2023/07/10 07:52:33;;;;;;;7.88;3.97;;;26.40;53.50;;;;;;7640794;22;80122;-60
2023/07/10 07:55:33;;;;;;;7.30;4.50;;;26.40;53.60;;;;;;7639619;22;81200;-62
2023/07/10 07:58:34;;;;;;;8.25;4.10;;;26.50;53.70;;;;;;7640513;22;80719;-63
2023/07/10 08:01:34;;;;;;;6.72;4.10;;;26.50;53.80;;;;;;7613378;22;81935;-61
2023/07/10 08:04:35;;;;;;;10.23;4.90;;;26.50;53.50;;;;;;7641409;22;81116;-61
2023/07/10 08:07:35;;;;;;;8.95;3.92;;;26.50;53.60;;;;;;7641051;22;81247;-62
2023/07/10 08:10:36;;;;;;;11.18;5.03;;;26.50;53.70;;;;;;7643526;22;80426;-62
2023/07/10 08:13:36;;;;;;;9.20;4.22;;;26.60;53.60;;;;;;7643988;22;80603;-62
2023/07/10 08:16:37;;;;;;;5.72;3.38;;;26.60;53.10;;;;;;7644291;22;80406;-62
2023/07/10 08:19:37;;;;;;;5.90;4.13;;;26.60;52.80;;;;;;7642709;22;80428;-61
2023/07/10 08:22:38;;;;;;;11.30;3.90;;;26.50;53.10;;;;;;7643176;22;80232;-64
2023/07/10 08:25:38;;;;;;;9.77;3.28;;;26.60;51.90;;;;;;7643581;22;80741;-66
2023/07/10 08:28:39;;;;;;;5.38;3.80;;;26.60;51.40;;;;;;7643216;22;80395;-66
2023/07/10 08:31:39;;;;;;;4.78;3.70;;;26.50;51.90;;;;;;7642826;22;80994;-68
2023/07/10 08:34:40;;;;;;;9.43;4.47;;;26.50;52.10;;;;;;7642531;22;80508;-67
2023/07/10 08:37:41;;;;;;;4.38;3.67;;;26.50;52.20;;;;;;7641354;22;80757;-66
2023/07/10 08:40:42;;;;;;;7.35;3.83;;;26.60;52.10;;;;;;7642856;22;80700;-63
2023/07/10 08:43:42;;;;;;;6.07;3.80;;;26.60;52.20;;;;;;7641943;22;80394;-63
2023/07/10 08:46:43;;;;;;;5.55;3.30;;;26.70;52.80;;;;;;7642147;22;81074;-61
2023/07/10 08:49:44;;;;;;;7.82;3.70;;;26.70;52.50;;;;;;7615800;22;81957;-62
2023/07/10 08:52:44;;;;;;;8.93;4.35;;;26.80;52.30;;;;;;7641911;22;81346;-61
2023/07/10 08:55:45;;;;;;;4.97;3.70;;;26.70;51.60;;;;;;7642622;22;80422;-60
2023/07/10 08:58:45;;;;;;;4.95;3.28;;;26.70;51.30;;;;;;7641732;22;81359;-62
2023/07/10 09:01:46;;;;;;;8.50;3.60;;;26.70;51.80;;;;;;7642619;22;80704;-61
2023/07/10 09:04:47;;;;;;;7.55;3.67;;;26.70;51.60;;;;;;7641779;22;80761;-65
2023/07/10 09:07:48;;;;;;;5.30;3.38;;;26.70;51.50;;;;;;7642595;22;80197;-65
2023/07/10 09:10:48;;;;;;;8.55;2.88;;;26.80;51.60;;;;;;7615572;22;83250;-67
2023/07/10 09:13:49;;;;;;;5.53;3.10;;;26.80;51.50;;;;;;7642341;22;80440;-65
2023/07/10 09:16:49;;;;;;;8.93;3.90;;;26.80;51.50;;;;;;7642674;22;80823;-63
2023/07/10 09:19:50;;;;;;;5.15;2.70;;;26.80;51.00;;;;;;7640913;22;80837;-66
2023/07/10 09:22:50;;;;;;;8.13;3.53;;;26.90;51.30;;;;;;7635121;22;81389;-64
2023/07/10 09:25:51;;;;;;;4.80;3.10;;;26.90;52.00;;;;;;7638569;22;80430;-63
2023/07/10 09:28:51;;;;;;;11.10;3.15;;;27.00;51.70;;;;;;7636811;22;82937;-61
2023/07/10 09:31:52;;;;;;;7.03;2.92;;;27.00;53.00;;;;;;7637045;22;80574;-65
2023/07/10 09:34:53;;;;;;;9.23;3.20;;;27.10;52.40;;;;;;7611466;22;82207;-64
2023/07/10 09:37:54;;;;;;;8.30;3.05;;;27.10;52.10;;;;;;7637867;22;80401;-64
2023/07/10 09:40:54;;;;;;;3.70;2.42;;;27.10;50.90;;;;;;7637762;22;80261;-64
2023/07/10 09:43:55;;;;;;;7.47;2.65;;;27.10;50.00;;;;;;7637020;22;81389;-62
2023/07/10 09:46:55;;;;;;;3.85;2.20;;;27.10;48.90;;;;;;7638157;22;81108;-63
2023/07/10 09:49:56;;;;;;;7.63;2.78;;;27.10;47.40;;;;;;7637750;22;80693;-65
2023/07/10 09:52:56;;;;;;;7.97;3.03;;;27.10;47.80;;;;;;7638674;22;81734;-72
2023/07/10 09:55:57;;;;;;;4.18;2.75;;;27.30;47.40;;;;;;7636248;22;80414;-64
2023/07/10 09:58:57;;;;;;;5.45;2.95;;;27.30;47.40;;;;;;7635598;22;81414;-68
2023/07/10 10:01:58;;;;;;;3.55;2.67;;;27.30;47.90;;;;;;7639963;22;80375;-73
2023/07/10 10:04:59;;;;;;;6.35;3.00;;;27.30;48.40;;;;;;7642077;22;80335;-72
2023/07/10 10:08:00;;;;;;;5.55;2.40;;;27.30;48.80;;;;;;7641815;22;81051;-73
2023/07/10 10:11:00;;;;;;;3.53;3.10;;;27.40;48.20;;;;;;7642822;22;80489;-63
2023/07/10 10:14:01;;;;;;;3.00;2.60;;;27.30;48.20;;;;;;7637676;22;80918;-61
2023/07/10 10:17:01;;;;;;;4.05;2.80;;;27.40;47.80;;;;;;7642077;22;81303;-63
2023/07/10 10:20:03;;;;;;;9.15;2.75;;;27.40;48.00;;;;;;7639151;22;80343;-61
2023/07/10 10:23:04;;;;;;;3.80;2.78;;;27.40;47.10;;;;;;7612859;22;82629;-61
2023/07/10 10:26:04;;;;;;;3.78;2.88;;;27.40;46.50;;;;;;7638194;22;80586;-62
2023/07/10 10:29:05;;;;;;;4.97;3.00;;;27.30;46.70;;;;;;7636930;22;80832;-63
2023/07/10 10:32:05;;;;;;;4.53;3.25;;;27.40;46.60;;;;;;7639587;22;80030;-64
2023/07/10 10:35:06;;;;;;;3.42;2.40;;;27.30;46.40;;;;;;7639833;22;80764;-63
2023/07/10 10:38:06;;;;;;;2.78;2.47;;;27.40;46.30;;;;;;7612328;22;83099;-63
2023/07/10 10:41:07;;;;;;;5.90;3.03;;;27.40;46.20;;;;;;7640829;22;80364;-64
2023/07/10 10:44:07;;;;;;;6.82;2.90;;;27.40;46.80;;;;;;7636389;22;80799;-66
2023/07/10 10:47:08;;;;;;;5.18;2.60;;;27.50;47.00;;;;;;7614923;22;81693;-66
2023/07/10 10:50:08;;;;;;;6.00;2.90;;;27.60;47.30;;;;;;7639351;22;80292;-64
2023/07/10 10:53:09;;;;;;;6.20;2.78;;;27.60;47.10;;;;;;7637927;22;80600;-61
2023/07/10 10:56:10;;;;;;;7.85;3.00;;;27.60;46.30;;;;;;7638078;22;80339;-58
2023/07/10 10:59:10;;;;;;;4.75;2.78;;;27.50;46.60;;;;;;7638735;22;80760;-63
2023/07/10 11:02:11;;;;;;;8.68;3.17;;;27.50;47.00;;;;;;7641507;22;81286;-62
2023/07/10 11:05:11;;;;;;;11.63;3.33;;;27.50;46.30;;;;;;7639989;22;81178;-64
2023/07/10 11:08:12;;;;;;;4.78;3.40;;;27.50;46.40;;;;;;7637969;22;80447;-65
2023/07/10 11:11:12;;;;;;;5.70;3.15;;;27.50;46.30;;;;;;7637012;22;80835;-63
2023/07/10 11:14:13;;;;;;;7.05;3.30;;;27.50;46.00;;;;;;7637028;22;80371;-65
2023/07/10 11:17:14;;;;;;;6.78;3.63;;;27.50;45.90;;;;;;7641042;22;80346;-63
2023/07/10 11:20:15;;;;;;;9.45;3.78;;;27.60;46.10;;;;;;7633488;22;80524;-68
2023/07/10 11:23:16;;;;;;;10.45;4.00;;;27.50;47.00;;;;;;7641929;22;80181;-66
2023/07/10 11:26:16;;;;;;;6.18;3.22;;;27.50;47.00;;;;;;7642969;22;80531;-67
2023/07/10 11:29:17;;;;;;;5.57;3.30;;;27.60;47.00;;;;;;7638414;22;80531;-67
2023/07/10 11:32:18;;;;;;;7.32;3.38;;;27.60;47.00;;;;;;7641416;22;81228;-63
2023/07/10 11:35:18;;;;;;;7.22;3.03;;;27.60;47.20;;;;;;7638647;22;80705;-63
2023/07/10 11:38:19;;;;;;;8.57;3.90;;;27.70;47.50;;;;;;7641559;22;80719;-68
2023/07/10 11:41:19;;;;;;;8.13;3.25;;;27.70;47.00;;;;;;7638252;22;80339;-67
2023/07/10 11:44:20;;;;;;;6.22;3.00;;;27.70;46.70;;;;;;7635634;22;81443;-60
2023/07/10 11:47:20;;;;;;;5.00;3.28;;;27.60;46.60;;;;;;7639874;22;81344;-59
2023/07/10 11:50:21;;;;;;;7.65;2.97;;;27.70;46.80;;;;;;7641352;22;80720;-59
2023/07/10 11:53:22;;;;;;;9.93;3.45;;;27.70;46.80;;;;;;7640723;22;81060;-58
2023/07/10 11:56:23;;;;;;;9.43;3.05;;;27.70;47.00;;;;;;7638562;22;80886;-62
2023/07/10 11:59:24;;;;;;;7.22;3.15;;;27.60;47.00;;;;;;7642412;22;81101;-60
2023/07/10 12:02:24;;;;;;;5.82;3.30;;;27.60;46.70;;;;;;7639956;22;81329;-64
2023/07/10 12:05:25;;;;;;;8.55;3.47;;;27.60;47.10;;;;;;7643260;22;80747;-66
2023/07/10 12:08:25;;;;;;;6.32;2.78;;;27.70;47.00;;;;;;7641878;22;80343;-65
2023/07/10 12:11:26;;;;;;;18.73;3.72;;;27.70;46.90;;;;;;7642461;22;81001;-65
2023/07/10 12:14:26;;;;;;;8.63;3.15;;;27.70;47.00;;;;;;7639216;22;81041;-67
2023/07/10 12:17:27;;;;;;;11.85;3.20;;;27.70;47.30;;;;;;7640424;22;80415;-66
2023/07/10 12:20:27;;;;;;;10.07;4.65;;;27.70;48.20;;;;;;7641867;22;80493;-59
2023/07/10 12:23:28;;;;;;;20.48;6.00;;;27.70;48.90;;;;;;7641312;22;80758;-60
2023/07/10 12:26:28;;;;;;;126.45;66.50;;;27.70;49.70;;;;;;7642682;22;80490;-60
2023/07/10 12:29:29;;;;;;;106.70;52.47;;;27.70;50.10;;;;;;7638556;22;83359;-60
2023/07/10 12:32:30;;;;;;;115.93;57.55;;;27.70;50.10;;;;;;7635815;22;84020;-60
2023/07/10 12:35:30;;;;;;;156.57;91.88;;;27.80;49.90;;;;;;7638094;22;84181;-61
2023/07/10 12:38:31;;;;;;;152.90;90.60;;;27.70;50.30;;;;;;7635345;22;83121;-66
2023/07/10 12:41:31;;;;;;;143.30;87.07;;;27.70;50.90;;;;;;7638803;22;83973;-64
2023/07/10 12:44:32;;;;;;;89.88;51.58;;;27.80;50.60;;;;;;7634174;22;82895;-67
2023/07/10 12:47:32;;;;;;;64.18;36.95;;;27.90;48.80;;;;;;7638571;22;83196;-67
2023/07/10 12:50:33;;;;;;;53.28;28.85;;;28.00;48.10;;;;;;7637171;22;82885;-66
2023/07/10 12:53:34;;;;;;;39.50;26.08;;;28.10;48.10;;;;;;7611168;22;84281;-60
2023/07/10 12:56:34;;;;;;;11.30;6.60;;;28.10;48.20;;;;;;7636667;22;83607;-55
2023/07/10 12:59:35;;;;;;;7.85;4.72;;;28.20;45.20;;;;;;7640938;22;82610;-54
2023/07/10 13:02:35;;;;;;;7.50;4.15;;;28.30;44.30;;;;;;7612663;22;81535;-54
2023/07/10 13:05:37;;;;;;;7.00;4.32;;;28.30;44.90;;;;;;7641172;22;80953;-57
2023/07/10 13:08:38;;;;;;;9.88;4.35;;;28.30;45.20;;;;;;7640367;22;82345;-53
2023/07/10 13:11:38;;;;;;;6.78;4.15;;;28.40;45.50;;;;;;7636948;22;81198;-57
2023/07/10 13:14:39;;;;;;;5.53;4.00;;;28.40;45.80;;;;;;7641402;22;80745;-69
2023/07/10 13:17:39;;;;;;;9.15;3.90;;;28.40;45.80;;;;;;7641857;22;80775;-72
2023/07/10 13:20:40;;;;;;;5.80;4.03;;;28.40;45.40;;;;;;7640858;22;81723;-75
2023/07/10 13:23:40;;;;;;;8.05;4.50;;;28.40;45.50;;;;;;7641910;22;80219;-72
2023/07/10 13:26:41;;;;;;;6.95;4.35;;;28.40;45.90;;;;;;7641200;22;80687;-75
2023/07/10 13:29:41;;;;;;;5.72;4.25;;;28.30;45.70;;;;;;7642880;22;80519;-72
2023/07/10 13:32:42;;;;;;;9.05;4.20;;;28.30;45.60;;;;;;7637368;22;80508;-73
2023/07/10 13:35:42;;;;;;;10.82;5.22;;;28.40;45.90;;;;;;7640603;22;80654;-69
2023/07/10 13:38:43;;;;;;;7.88;4.75;;;28.40;45.80;;;;;;7643023;22;80337;-68
2023/07/10 13:41:44;;;;;;;8.75;3.92;;;28.40;45.70;;;;;;7640225;22;80727;-70
2023/07/10 13:44:44;;;;;;;6.63;4.40;;;28.40;44.90;;;;;;7641209;22;80878;-64
2023/07/10 13:47:45;;;;;;;10.95;3.72;;;28.40;44.10;;;;;;7637247;22;80879;-71
2023/07/10 13:50:45;;;;;;;7.07;3.80;;;28.50;44.60;;;;;;7639105;22;81303;-68
2023/07/10 13:53:46;;;;;;;6.43;3.75;;;28.50;45.00;;;;;;7642461;22;80427;-71
2023/07/10 13:56:46;;;;;;;7.57;4.55;;;28.40;44.80;;;;;;7641682;22;80656;-73
2023/07/10 13:59:47;;;;;;;5.15;4.13;;;28.40;44.30;;;;;;7636695;22;80716;-71
2023/07/10 14:02:51;;;;;;;10.90;5.22;;;28.40;44.20;;;;;;7635541;22;81394;-70
2023/07/10 14:05:51;;;;;;;11.73;3.92;;;28.40;44.50;;;;;;7635367;22;86040;-64
2023/07/10 14:08:52;;;;;;;10.13;5.35;;;28.40;44.50;;;;;;7635514;22;80835;-73
2023/07/10 14:11:55;;;;;;;5.93;4.45;;;28.40;44.60;;;;;;7638810;22;80628;-68
2023/07/10 14:14:55;;;;;;;5.85;4.25;;;28.50;45.80;;;;;;7639179;22;80313;-68
2023/07/10 14:17:56;;;;;;;5.00;3.65;;;28.50;45.30;;;;;;7635101;22;81025;-69
2023/07/10 14:20:59;;;;;;;11.85;4.13;;;28.50;45.60;;;;;;7638022;22;80447;-67
2023/07/10 14:24:00;;;;;;;8.25;4.43;;;28.50;45.60;;;;;;7637853;22;80681;-67
2023/07/10 14:27:00;;;;;;;8.68;4.57;;;28.50;45.60;;;;;;7637603;22;80827;-67
2023/07/10 14:30:01;;;;;;;8.02;4.38;;;28.50;45.30;;;;;;7637035;22;81055;-55
2023/07/10 14:33:01;;;;;;;10.45;4.32;;;28.50;45.60;;;;;;7640334;22;86596;-54
2023/07/10 14:36:04;;;;;;;8.43;5.13;;;28.50;45.70;;;;;;7639571;22;81095;-52
2023/07/10 14:39:05;;;;;;;6.03;4.03;;;28.60;45.70;;;;;;7631012;22;82363;-52
2023/07/10 14:42:06;;;;;;;8.73;4.78;;;28.50;45.50;;;;;;7641432;22;81092;-49
2023/07/10 14:45:06;;;;;;;6.70;4.35;;;28.60;45.60;;;;;;7640458;22;80450;-49
2023/07/10 14:48:07;;;;;;;12.55;7.70;;;28.60;46.00;;;;;;7640537;22;80851;-66
2023/07/10 14:51:07;;;;;;;10.95;5.70;;;28.60;45.90;;;;;;7633336;22;81663;-66
2023/07/10 14:54:08;;;;;;;9.90;5.72;;;28.60;46.00;;;;;;7642352;22;81098;-65
2023/07/10 14:57:08;;;;;;;9.27;5.05;;;28.60;46.40;;;;;;7641203;22;80607;-68
2023/07/10 15:00:09;;;;;;;9.07;5.28;;;28.60;46.60;;;;;;7641210;22;80567;-68
2023/07/10 15:03:09;;;;;;;11.05;4.97;;;28.60;46.60;;;;;;7640278;22;80919;-68
2023/07/10 15:06:10;;;;;;;7.93;4.60;;;28.60;45.70;;;;;;7633809;22;81632;-66
2023/07/10 15:09:10;;;;;;;7.68;5.10;;;28.50;44.60;;;;;;7637882;22;80714;-69
2023/07/10 15:12:11;;;;;;;6.38;4.85;;;28.60;45.30;;;;;;7634388;22;81066;-69
2023/07/10 15:15:12;;;;;;;6.65;4.82;;;28.50;45.80;;;;;;7642593;22;81096;-67
2023/07/10 15:18:12;;;;;;;6.68;5.47;;;28.50;46.20;;;;;;7643589;22;80264;-69
2023/07/10 15:21:13;;;;;;;8.13;5.07;;;28.50;46.10;;;;;;7640866;22;81133;-70
2023/07/10 15:24:13;;;;;;;6.18;4.88;;;28.50;45.90;;;;;;7639261;22;80888;-58
2023/07/10 15:27:14;;;;;;;8.30;5.45;;;28.40;45.50;;;;;;7644717;22;80188;-58
2023/07/10 15:30:14;;;;;;;7.03;4.70;;;28.40;45.90;;;;;;7645524;22;80504;-54
2023/07/10 15:33:15;;;;;;;5.60;4.70;;;28.40;45.90;;;;;;7643667;22;80891;-56
2023/07/10 15:36:16;;;;;;;8.90;5.03;;;28.30;45.80;;;;;;7624526;22;81354;-56